Time;durP1;ratioP1;P1;durP2;ratioP2;P2;SDS_P1;SDS_P2;PMS_P1;PMS_P2;Temp;Humidity;BMP_temperature;BMP_pressure;BME280_temperature;BME280_humidity;BME280_pressure;Samples;Min_cycle;Max_cycle;Signal;HPM_P1;HPM_P2
2022/05/10 00:00:01;;;;;;;8.73;8.07;;;;;;;10.83;63.93;93281.94;5049418;28;20196;-74
2022/05/10 00:02:30;;;;;;;9.30;8.90;;;;;;;10.88;64.23;93276.72;5049901;28;20225;-74
2022/05/10 00:04:55;;;;;;;9.23;8.73;;;;;;;10.91;64.42;93272.81;5049161;28;20228;-74
2022/05/10 00:07:21;;;;;;;9.67;9.20;;;;;;;10.90;63.59;93269.41;5047929;28;20226;-74
2022/05/10 00:09:46;;;;;;;9.40;8.90;;;;;;;10.95;62.92;93271.22;5049668;28;20195;-74
2022/05/10 00:12:12;;;;;;;11.37;10.67;;;;;;;10.76;64.27;93268.38;5049657;28;20302;-73
2022/05/10 00:14:38;;;;;;;9.20;8.80;;;;;;;10.84;63.95;93256.59;5055160;28;20203;-74
2022/05/10 00:17:03;;;;;;;9.27;8.87;;;;;;;10.83;64.01;93266.25;5052693;28;20340;-74
2022/05/10 00:19:30;;;;;;;9.20;8.80;;;;;;;10.70;63.41;93243.31;5052466;28;20197;-74
2022/05/10 00:21:56;;;;;;;8.90;8.50;;;;;;;10.43;64.42;93221.91;5052058;28;20234;-74
2022/05/10 00:24:23;;;;;;;8.83;8.33;;;;;;;10.69;63.93;93257.41;5054077;28;20213;-74
2022/05/10 00:26:48;;;;;;;9.57;8.97;;;;;;;10.76;63.84;93260.53;5052401;28;20229;-73
2022/05/10 00:29:14;;;;;;;9.70;9.10;;;;;;;10.60;64.11;93240.69;5053057;28;20242;-74
2022/05/10 00:31:40;;;;;;;9.10;8.73;;;;;;;10.80;64.54;93255.56;5053026;28;20234;-74
2022/05/10 00:34:06;;;;;;;8.80;8.43;;;;;;;10.76;65.05;93249.28;5052620;28;20205;-74
2022/05/10 00:36:32;;;;;;;8.93;8.53;;;;;;;10.77;64.89;93261.31;5053189;28;20233;-74
2022/05/10 00:38:57;;;;;;;8.90;8.50;;;;;;;10.70;65.11;93261.59;5052997;28;20190;-74
2022/05/10 00:41:38;;;;;;;9.80;9.37;;;;;;;10.66;64.75;93251.94;5052834;28;20262;-74
2022/05/10 00:44:20;;;;;;;10.13;9.63;;;;;;;10.59;65.78;93260.03;5053325;28;20195;-74
2022/05/10 00:46:59;;;;;;;10.03;9.53;;;;;;;10.54;65.56;93254.81;5051838;28;20237;-74
2022/05/10 00:49:38;;;;;;;8.63;8.23;;;;;;;10.50;65.72;93250.38;5052918;28;20201;-73
2022/05/10 00:52:12;;;;;;;9.67;9.27;;;;;;;10.35;66.40;93248.53;5051470;28;20234;-74
2022/05/10 00:54:48;;;;;;;9.60;9.07;;;;;;;10.43;66.47;93255.84;5052974;28;20198;-74
2022/05/10 00:57:41;;;;;;;9.90;9.43;;;;;;;10.36;66.70;93259.75;5051130;28;20920;-74
2022/05/10 01:00:11;;;;;;;8.60;8.20;;;;;;;10.28;66.69;93255.84;5052432;28;21052;-74
2022/05/10 01:02:44;;;;;;;9.20;8.77;;;;;;;10.25;66.95;93253.75;5051579;28;20226;-73
2022/05/10 01:05:28;;;;;;;9.47;9.07;;;;;;;10.14;68.34;93256.63;5051527;28;20197;-73
2022/05/10 01:08:34;;;;;;;9.27;8.87;;;;;;;10.28;67.92;93252.44;5084528;28;20226;-73
2022/05/10 01:11:11;;;;;;;10.27;9.87;;;;;;;10.17;67.91;93250.88;5075954;28;20237;-74
2022/05/10 01:14:06;;;;;;;9.17;8.67;;;;;;;10.22;68.57;93249.06;5051802;28;20186;-74
2022/05/10 01:16:31;;;;;;;9.70;9.20;;;;;;;10.05;68.77;93237.28;5083215;28;20228;-73
2022/05/10 01:18:57;;;;;;;8.67;8.13;;;;;;;10.01;68.81;93239.59;5050366;28;20199;-73
2022/05/10 01:21:50;;;;;;;9.23;8.77;;;;;;;10.08;68.89;93240.19;5051615;28;20232;-74
2022/05/10 01:24:27;;;;;;;9.90;9.40;;;;;;;9.91;69.50;93242.22;5050998;28;20184;-74
2022/05/10 01:27:19;;;;;;;9.53;8.97;;;;;;;9.84;69.59;93233.84;5083570;28;20226;-73
2022/05/10 01:29:57;;;;;;;9.23;8.63;;;;;;;9.81;69.85;93242.19;5051983;28;20190;-74
2022/05/10 01:35:30;;;;;;;9.63;9.00;;;;;;;9.83;70.36;93232.28;5051319;28;20196;-73
2022/05/10 01:38:03;;;;;;;9.13;8.73;;;;;;;9.79;70.47;93239.03;5051114;28;20223;-74
2022/05/10 01:40:36;;;;;;;9.77;9.37;;;;;;;9.81;69.97;93229.16;5052486;28;20289;-74
2022/05/10 01:43:19;;;;;;;9.67;9.07;;;;;;;9.49;70.81;93184.25;5051228;28;20206;-74
2022/05/10 01:45:53;;;;;;;8.87;8.50;;;;;;;9.85;70.83;93230.22;5084073;28;20204;-74
2022/05/10 01:48:21;;;;;;;9.83;9.13;;;;;;;9.84;70.22;93230.47;5052389;28;20213;-73
2022/05/10 01:50:58;;;;;;;9.33;8.93;;;;;;;9.59;71.13;93215.53;5051000;28;20210;-74
2022/05/10 01:53:30;;;;;;;9.33;8.93;;;;;;;9.71;71.18;93226.53;5051311;28;20181;-72
2022/05/10 01:56:02;;;;;;;9.60;9.10;;;;;;;9.60;71.39;93230.16;5050111;28;20426;-73
2022/05/10 01:58:32;;;;;;;9.50;8.77;;;;;;;9.67;71.13;93236.69;5051418;28;20194;-74
2022/05/10 02:01:00;;;;;;;9.23;8.83;;;;;;;9.62;71.80;93233.28;5052393;28;20217;-74
2022/05/10 02:03:31;;;;;;;8.70;8.30;;;;;;;9.58;71.53;93237.44;5051695;28;20190;-74
2022/05/10 02:06:16;;;;;;;8.47;8.07;;;;;;;9.53;71.62;93234.81;5050580;28;20268;-72
2022/05/10 02:08:55;;;;;;;10.20;9.53;;;;;;;9.56;71.92;93234.31;5051951;28;20213;-74
2022/05/10 02:11:21;;;;;;;9.70;9.13;;;;;;;9.49;71.88;93242.34;5044857;28;20234;-74
2022/05/10 02:13:52;;;;;;;8.80;8.37;;;;;;;9.47;71.84;93236.63;5031802;28;20209;-73
2022/05/10 02:16:30;;;;;;;8.87;8.27;;;;;;;9.41;71.88;93232.44;5036177;28;20252;-73
2022/05/10 02:19:34;;;;;;;9.43;9.03;;;;;;;9.42;71.65;93222.78;5050754;28;20189;-74
2022/05/10 02:22:08;;;;;;;9.60;8.80;;;;;;;9.52;71.70;93228.03;5050431;28;20222;-73
2022/05/10 02:24:49;;;;;;;9.53;9.10;;;;;;;9.25;72.73;93214.41;5051021;28;20181;-73
2022/05/10 02:27:37;;;;;;;9.30;8.90;;;;;;;9.37;72.83;93223.56;5051311;28;20259;-74
2022/05/10 02:30:02;;;;;;;9.60;8.77;;;;;;;9.16;73.33;93221.94;5049852;28;20216;-74
2022/05/10 02:35:21;;;;;;;9.60;9.17;;;;;;;9.23;72.78;93234.72;5051300;28;20340;-73
2022/05/10 02:37:46;;;;;;;9.60;9.20;;;;;;;9.28;72.79;93232.91;5049726;28;20258;-74
2022/05/10 02:40:14;;;;;;;9.70;9.30;;;;;;;9.14;72.56;93231.81;5052895;28;20197;-73
2022/05/10 02:42:41;;;;;;;9.47;8.87;;;;;;;9.03;73.45;93234.59;5049986;28;20252;-73
2022/05/10 02:45:07;;;;;;;10.97;10.47;;;;;;;9.13;73.20;93234.66;5052026;28;20261;-73
2022/05/10 02:47:35;;;;;;;9.13;8.67;;;;;;;9.12;73.62;93230.50;5050230;28;20256;-73
2022/05/10 02:50:02;;;;;;;9.73;9.13;;;;;;;9.09;73.47;93234.38;5051961;28;20202;-74
2022/05/10 02:52:30;;;;;;;9.67;9.17;;;;;;;9.08;74.32;93224.22;5050359;28;20242;-73
2022/05/10 02:55:01;;;;;;;10.90;10.30;;;;;;;9.20;73.31;93230.00;5049583;28;20190;-74
2022/05/10 02:57:28;;;;;;;9.90;9.40;;;;;;;9.10;73.27;93233.38;5049761;28;20249;-73
2022/05/10 02:59:57;;;;;;;9.47;8.97;;;;;;;9.00;73.51;93224.69;5050465;28;20197;-73
2022/05/10 03:02:37;;;;;;;9.83;9.17;;;;;;;8.87;74.16;93230.38;5048643;28;20256;-73
2022/05/10 03:05:04;;;;;;;10.60;9.90;;;;;;;8.93;73.76;93237.19;5049573;28;20227;-73
2022/05/10 03:07:31;;;;;;;10.10;9.20;;;;;;;9.07;72.89;93227.88;5050185;28;20230;-74
2022/05/10 03:09:56;;;;;;;9.70;9.20;;;;;;;8.93;72.98;93198.91;5049936;28;20202;-74
2022/05/10 03:12:22;;;;;;;9.87;9.27;;;;;;;8.91;73.24;93218.41;5050683;28;20253;-74
2022/05/10 03:14:49;;;;;;;9.83;9.43;;;;;;;8.86;73.87;93216.56;5050052;28;20198;-73
2022/05/10 03:17:14;;;;;;;10.03;9.53;;;;;;;9.01;73.48;93234.09;5050072;28;20270;-72
2022/05/10 03:19:41;;;;;;;12.60;8.83;;;;;;;9.34;72.20;93233.69;5051618;28;20213;-72
2022/05/10 03:22:08;;;;;;;9.50;9.00;;;;;;;9.41;71.78;93229.84;5049706;28;20230;-72
2022/05/10 03:24:34;;;;;;;9.40;9.00;;;;;;;9.71;71.22;93235.13;5052510;28;20197;-72
2022/05/10 03:27:02;;;;;;;9.63;9.23;;;;;;;9.64;70.63;93233.81;5049436;28;20234;-72
2022/05/10 03:29:27;;;;;;;9.93;9.33;;;;;;;9.85;70.25;93234.63;5049087;28;20221;-72
2022/05/10 03:31:53;;;;;;;9.20;8.73;;;;;;;9.72;70.54;93228.88;5051370;28;20226;-72
2022/05/10 03:37:04;;;;;;;10.57;9.77;;;;;;;10.44;68.76;93241.78;5048478;28;20256;-71
2022/05/10 03:39:29;;;;;;;9.20;8.70;;;;;;;10.36;68.82;93239.69;5048847;28;20190;-73
2022/05/10 03:41:55;;;;;;;8.80;8.40;;;;;;;9.85;70.40;93237.25;5050645;28;20227;-73
2022/05/10 03:44:21;;;;;;;9.00;8.60;;;;;;;10.09;70.16;93249.56;5049802;28;20194;-72
2022/05/10 03:46:46;;;;;;;8.90;8.40;;;;;;;10.08;70.71;93253.22;5049138;28;20231;-72
2022/05/10 03:49:13;;;;;;;9.87;9.47;;;;;;;10.13;70.84;93255.06;5048634;28;20225;-70
2022/05/10 03:51:38;;;;;;;9.27;8.80;;;;;;;10.32;70.77;93254.28;5045286;28;20233;-70
2022/05/10 03:54:04;;;;;;;10.50;9.90;;;;;;;10.59;69.86;93260.03;5047478;28;20198;-72
2022/05/10 03:56:29;;;;;;;9.43;9.00;;;;;;;11.04;67.76;93259.97;5048236;28;20225;-72
2022/05/10 03:58:57;;;;;;;9.13;8.53;;;;;;;11.07;67.51;93266.47;5049299;28;20273;-73
2022/05/10 04:01:23;;;;;;;9.63;9.23;;;;;;;11.68;65.52;93259.25;5047269;28;20221;-74
2022/05/10 04:03:49;;;;;;;9.80;9.03;;;;;;;12.04;64.72;93268.47;5047995;28;20186;-72
2022/05/10 04:06:15;;;;;;;9.47;8.77;;;;;;;12.00;62.88;93270.84;5049457;28;20222;-72
2022/05/10 04:08:40;;;;;;;9.57;9.07;;;;;;;11.71;63.45;93256.09;5048832;28;20190;-77
2022/05/10 04:11:09;;;;;;;10.57;9.67;;;;;;;11.60;65.31;93259.75;5049267;28;20238;-79
2022/05/10 04:13:34;;;;;;;9.73;9.23;;;;;;;11.52;66.35;93270.81;5049601;28;20191;-78
2022/05/10 04:16:00;;;;;;;10.10;9.40;;;;;;;11.50;64.48;93238.91;5048209;28;20264;-79
2022/05/10 04:18:27;;;;;;;8.53;8.17;;;;;;;11.70;64.20;93259.75;5049883;28;20197;-74
2022/05/10 04:20:53;;;;;;;8.63;8.17;;;;;;;11.59;65.39;93247.75;5048493;28;20198;-75
2022/05/10 04:23:18;;;;;;;10.03;9.30;;;;;;;11.70;64.17;93267.59;5049575;28;20205;-74
2022/05/10 04:25:44;;;;;;;10.00;9.30;;;;;;;11.77;64.40;93281.16;5048973;28;20196;-80
2022/05/10 04:28:09;;;;;;;9.87;9.37;;;;;;;11.80;64.49;93270.19;5049217;28;20219;-74
2022/05/10 04:30:35;;;;;;;8.90;8.30;;;;;;;11.85;63.28;93267.53;5050074;28;20220;-74
2022/05/10 04:33:01;;;;;;;10.07;9.47;;;;;;;12.04;63.33;93261.41;5049299;28;20237;-75
2022/05/10 04:35:26;;;;;;;10.73;10.03;;;;;;;12.38;62.84;93271.91;5048646;28;20182;-74
2022/05/10 04:37:52;;;;;;;10.13;9.53;;;;;;;12.45;62.77;93267.94;5047327;28;20268;-74
2022/05/10 04:43:05;;;;;;;10.60;10.00;;;;;;;12.60;62.19;93254.75;5047007;28;20210;-74
2022/05/10 04:45:34;;;;;;;10.43;9.57;;;;;;;12.77;61.67;93270.03;5047295;28;20895;-74
2022/05/10 04:47:59;;;;;;;10.40;9.43;;;;;;;13.25;58.02;93268.28;5048147;28;20226;-74
2022/05/10 04:50:24;;;;;;;11.07;10.10;;;;;;;13.25;58.06;93282.19;5048541;28;20208;-74
2022/05/10 04:52:50;;;;;;;10.67;9.93;;;;;;;12.72;59.48;93283.97;5046327;28;20245;-74
2022/05/10 04:55:16;;;;;;;10.83;10.13;;;;;;;12.77;57.58;93291.00;5047352;28;20174;-74
2022/05/10 04:57:42;;;;;;;10.60;9.77;;;;;;;13.38;56.13;93293.88;5048017;28;20222;-74
2022/05/10 05:00:12;;;;;;;9.03;8.50;;;;;;;13.44;56.21;93301.41;5049239;28;20257;-74
2022/05/10 05:02:37;;;;;;;9.50;8.60;;;;;;;13.65;55.59;93284.38;5053448;28;20286;-74
2022/05/10 05:05:04;;;;;;;9.17;8.60;;;;;;;13.60;57.02;93305.44;5053083;28;20190;-74
2022/05/10 05:07:29;;;;;;;8.80;8.23;;;;;;;13.98;53.13;93295.78;5052702;28;20234;-74
2022/05/10 05:09:55;;;;;;;9.80;9.03;;;;;;;13.98;54.43;93291.31;5052411;28;20274;-74
2022/05/10 05:12:22;;;;;;;9.00;8.27;;;;;;;14.48;51.50;93301.19;5053410;28;20289;-75
2022/05/10 05:14:47;;;;;;;9.07;8.57;;;;;;;15.44;49.38;93308.31;5050936;28;20201;-82
2022/05/10 05:17:13;;;;;;;8.60;8.13;;;;;;;15.75;48.53;93301.41;5053012;28;20246;-79
2022/05/10 05:19:38;;;;;;;8.33;7.93;;;;;;;15.39;50.88;93299.72;5052215;28;20198;-86
2022/05/10 05:22:04;;;;;;;8.87;8.37;;;;;;;15.26;51.48;93303.88;5052373;28;20224;-86
2022/05/10 05:24:29;;;;;;;9.07;8.57;;;;;;;15.77;49.98;93303.75;5052585;28;20275;-80
2022/05/10 05:26:55;;;;;;;10.00;9.23;;;;;;;17.01;47.14;93294.19;5051968;28;20268;-73
2022/05/10 05:29:21;;;;;;;11.13;10.13;;;;;;;17.57;46.17;93297.00;5052173;28;20178;-73
2022/05/10 05:31:48;;;;;;;11.17;9.07;;;;;;;16.95;47.68;93303.31;5050565;28;20256;-77
2022/05/10 05:34:13;;;;;;;10.77;9.93;;;;;;;17.60;46.42;93296.41;5051984;28;20242;-74
2022/05/10 05:36:39;;;;;;;10.10;9.47;;;;;;;20.41;39.88;93292.81;5050130;28;20233;-74
2022/05/10 05:39:04;;;;;;;10.20;9.47;;;;;;;20.99;38.45;93293.81;5050735;28;20194;-73
2022/05/10 05:41:30;;;;;;;9.50;8.70;;;;;;;23.98;33.02;93314.44;5053248;28;20318;-74
2022/05/10 05:43:55;;;;;;;12.70;9.40;;;;;;;25.12;30.32;93296.09;5053080;28;20187;-74
2022/05/10 05:46:21;;;;;;;8.95;8.35;;;;;;;26.99;28.47;93310.81;5051361;28;20237;-77
2022/05/10 05:48:46;;;;;;;10.10;9.23;;;;;;;28.81;25.43;93307.31;5051746;28;20179;-75
2022/05/10 05:51:12;;;;;;;10.00;8.65;;;;;;;28.53;26.11;93311.72;5051518;28;20228;-77
2022/05/10 05:53:38;;;;;;;8.25;7.75;;;;;;;28.95;25.50;93312.78;5052808;28;20184;-78
2022/05/10 05:56:08;;;;;;;10.13;9.10;;;;;;;30.19;23.11;93316.72;5051068;28;20259;-77
2022/05/10 05:58:36;;;;;;;9.43;8.73;;;;;;;30.76;22.71;93331.81;5050712;28;20763;-77
2022/05/10 06:01:02;;;;;;;8.80;8.20;;;;;;;30.96;22.64;93325.63;5051699;28;20229;-77
2022/05/10 06:03:28;;;;;;;9.32;8.63;;;;;;;31.74;21.52;93320.03;5051409;28;20194;-78
2022/05/10 06:05:53;;;;;;;9.30;8.65;;;;;;;30.53;22.51;93317.94;5050469;28;20204;-77
2022/05/10 06:08:19;;;;;;;10.10;9.13;;;;;;;30.31;22.83;93329.84;5050287;28;20201;-78
2022/05/10 06:10:50;;;;;;;9.95;9.20;;;;;;;26.16;27.11;93317.97;5049463;28;20186;-78
2022/05/10 06:13:19;;;;;;;9.70;8.88;;;;;;;29.92;23.12;93320.94;5050621;28;20195;-79
2022/05/10 06:15:44;;;;;;;9.00;8.38;;;;;;;30.16;23.06;93329.06;5050870;28;20198;-78
2022/05/10 06:18:10;;;;;;;10.27;9.43;;;;;;;30.88;21.81;93317.94;5049138;28;20299;-78
2022/05/10 06:20:35;;;;;;;9.15;8.45;;;;;;;30.63;22.26;93330.66;5049882;28;20197;-79
2022/05/10 06:23:01;;;;;;;9.20;8.43;;;;;;;32.11;20.91;93314.84;5049729;28;20313;-77
2022/05/10 06:25:28;;;;;;;9.15;8.25;;;;;;;30.11;22.41;93313.25;5050935;28;20189;-77
2022/05/10 06:27:55;;;;;;;9.10;8.32;;;;;;;27.38;25.60;93304.03;5051211;28;20248;-77
2022/05/10 06:30:22;;;;;;;9.15;8.55;;;;;;;21.26;36.40;93309.94;5052087;28;20380;-77
2022/05/10 06:32:48;;;;;;;10.50;9.68;;;;;;;20.43;38.21;93305.75;5050669;28;20283;-76
2022/05/10 06:35:15;;;;;;;9.35;8.60;;;;;;;18.66;41.66;93309.31;5050857;28;20205;-76
2022/05/10 06:40:25;;;;;;;10.15;9.35;;;;;;;18.85;43.04;93296.53;5051930;28;20185;-77
2022/05/10 06:42:50;;;;;;;10.70;9.82;;;;;;;18.43;43.90;93302.56;5049810;28;21073;-77
2022/05/10 06:45:18;;;;;;;10.40;9.43;;;;;;;19.09;41.21;93308.22;5051169;28;20722;-76
2022/05/10 06:47:48;;;;;;;10.83;9.87;;;;;;;18.61;42.68;93294.38;5050203;28;20227;-76
2022/05/10 06:50:18;;;;;;;10.00;9.23;;;;;;;18.42;43.15;93303.66;5050189;28;20203;-76
2022/05/10 06:52:44;;;;;;;11.13;9.93;;;;;;;18.40;43.53;93284.69;5050257;28;20235;-76
2022/05/10 06:55:11;;;;;;;10.30;9.60;;;;;;;18.09;43.97;93281.34;5050317;28;20205;-76
2022/05/10 06:57:37;;;;;;;10.80;9.97;;;;;;;18.12;43.91;93302.66;5050163;28;20246;-76
2022/05/10 07:00:06;;;;;;;11.60;10.53;;;;;;;17.17;46.02;93303.31;5051897;28;20219;-76
2022/05/10 07:02:31;;;;;;;11.10;10.10;;;;;;;17.80;46.29;93305.66;5050379;28;20320;-76
2022/05/10 07:04:57;;;;;;;10.07;9.47;;;;;;;18.04;43.41;93305.28;5051673;28;20221;-77
2022/05/10 07:07:22;;;;;;;11.43;10.33;;;;;;;17.76;43.80;93262.44;5049716;28;20927;-77
2022/05/10 07:09:48;;;;;;;10.60;9.93;;;;;;;17.76;45.28;93288.09;5051236;28;20672;-76
2022/05/10 07:12:13;;;;;;;10.27;9.63;;;;;;;17.89;44.38;93297.75;5049331;28;20230;-76
2022/05/10 07:14:39;;;;;;;10.17;9.40;;;;;;;17.71;46.55;93307.50;5050670;28;20192;-76
2022/05/10 07:17:04;;;;;;;11.07;10.10;;;;;;;17.88;44.56;93309.41;5049409;28;20257;-76
2022/05/10 07:19:30;;;;;;;10.93;10.10;;;;;;;17.97;44.56;93304.94;5050516;28;20194;-76
2022/05/10 07:21:55;;;;;;;9.57;9.07;;;;;;;18.18;43.90;93296.13;5049154;28;20229;-77
2022/05/10 07:24:21;;;;;;;11.23;10.13;;;;;;;17.45;46.97;93293.38;5050102;28;20577;-77
2022/05/10 07:26:47;;;;;;;9.63;9.03;;;;;;;16.73;46.31;93281.44;5049710;28;20242;-76
2022/05/10 07:29:14;;;;;;;10.13;9.47;;;;;;;17.51;46.83;93277.13;5050251;28;20190;-76
2022/05/10 07:31:39;;;;;;;9.17;8.63;;;;;;;18.01;42.81;93308.53;5050417;28;20236;-76
2022/05/10 07:34:05;;;;;;;9.07;8.27;;;;;;;18.26;40.00;93298.03;5050360;28;20194;-77
2022/05/10 07:36:33;;;;;;;8.30;7.87;;;;;;;18.23;40.48;93308.41;5050991;28;21124;-76
2022/05/10 07:39:10;;;;;;;8.43;7.90;;;;;;;18.34;41.22;93299.13;5049704;28;20201;-76
2022/05/10 07:41:37;;;;;;;8.30;7.90;;;;;;;18.63;37.86;93291.41;5050840;28;20245;-76
2022/05/10 07:44:04;;;;;;;7.53;7.23;;;;;;;18.22;38.92;93299.72;5049608;28;20262;-76
2022/05/10 07:46:29;;;;;;;8.77;7.80;;;;;;;18.59;38.27;93301.84;5051248;28;20301;-76
2022/05/10 07:48:55;;;;;;;8.30;7.80;;;;;;;19.06;37.17;93302.75;5050274;28;20194;-76
2022/05/10 07:51:21;;;;;;;9.07;8.57;;;;;;;18.81;38.77;93308.84;5050062;28;20914;-76
2022/05/10 07:53:47;;;;;;;9.07;8.23;;;;;;;18.71;39.84;93295.91;5049932;28;20198;-77
2022/05/10 07:56:12;;;;;;;8.57;8.10;;;;;;;18.44;36.96;93304.16;5049028;28;20234;-77
2022/05/10 07:58:38;;;;;;;9.23;8.30;;;;;;;18.71;39.55;93295.91;5049593;28;20228;-76
2022/05/10 08:01:04;;;;;;;8.10;7.60;;;;;;;19.11;38.31;93310.53;5050000;28;20226;-76
2022/05/10 08:03:31;;;;;;;8.70;8.30;;;;;;;18.52;38.14;93306.03;5049451;28;20182;-76
2022/05/10 08:05:56;;;;;;;8.40;7.90;;;;;;;18.87;38.04;93302.28;5049136;28;20230;-76
2022/05/10 08:08:23;;;;;;;8.77;8.27;;;;;;;19.20;35.83;93306.00;5050452;28;20298;-76
2022/05/10 08:10:50;;;;;;;8.47;7.90;;;;;;;19.11;36.11;93305.25;5049512;28;20186;-77
2022/05/10 08:13:21;;;;;;;9.00;8.50;;;;;;;19.30;34.59;93304.94;5049953;28;20184;-77
2022/05/10 08:15:48;;;;;;;7.87;7.47;;;;;;;19.15;36.15;93285.78;5050089;28;20209;-76
2022/05/10 08:18:14;;;;;;;9.20;8.43;;;;;;;19.10;34.34;93279.84;5050138;28;20269;-77
2022/05/10 08:20:41;;;;;;;8.60;7.87;;;;;;;18.94;34.27;93292.78;5048325;28;20208;-77
2022/05/10 08:23:07;;;;;;;8.37;7.97;;;;;;;18.73;35.05;93301.66;5050915;28;20205;-76
2022/05/10 08:25:34;;;;;;;9.23;8.33;;;;;;;19.09;36.46;93288.91;5050296;28;20288;-76
2022/05/10 08:28:00;;;;;;;7.90;7.50;;;;;;;19.48;35.17;93280.75;5047752;28;20277;-77
2022/05/10 08:30:26;;;;;;;7.90;7.50;;;;;;;19.52;35.56;93289.59;5049218;28;20229;-77
2022/05/10 08:32:52;;;;;;;8.63;8.03;;;;;;;19.49;36.44;93302.69;5049020;28;20234;-78
2022/05/10 08:35:18;;;;;;;8.40;8.00;;;;;;;19.57;34.16;93289.44;5052678;28;20182;-77
2022/05/10 08:37:44;;;;;;;8.50;8.07;;;;;;;19.50;33.98;93302.41;5053390;28;20243;-77
2022/05/10 08:40:31;;;;;;;8.73;8.17;;;;;;;18.67;35.66;93282.53;5052870;28;20202;-77
2022/05/10 08:43:00;;;;;;;8.50;7.90;;;;;;;18.95;35.70;93298.88;5052855;28;20822;-77
2022/05/10 08:45:27;;;;;;;7.97;7.57;;;;;;;19.17;36.89;93296.81;5053251;28;20186;-77
2022/05/10 08:47:53;;;;;;;12.50;8.90;;;;;;;19.76;34.84;93297.00;5053053;28;21090;-77
2022/05/10 08:50:21;;;;;;;8.23;7.83;;;;;;;19.79;34.71;93277.81;5053568;28;20186;-77
2022/05/10 08:52:51;;;;;;;8.33;7.83;;;;;;;19.91;34.52;93285.88;5053490;28;20228;-77
2022/05/10 08:55:21;;;;;;;8.90;8.30;;;;;;;19.89;33.77;93293.38;5053632;28;20195;-77
2022/05/10 08:57:52;;;;;;;8.53;7.93;;;;;;;19.72;34.73;93296.84;5052321;28;20235;-77
2022/05/10 09:00:36;;;;;;;8.70;8.20;;;;;;;19.14;34.77;93286.84;5054189;28;20194;-78
2022/05/10 09:03:11;;;;;;;8.10;7.70;;;;;;;19.81;36.91;93288.88;5053315;28;20216;-77
2022/05/10 09:05:41;;;;;;;8.67;8.13;;;;;;;19.69;35.40;93294.84;5052443;28;20219;-77
2022/05/10 09:08:12;;;;;;;8.73;8.27;;;;;;;19.61;35.67;93292.22;5054698;28;20198;-77
2022/05/10 09:10:44;;;;;;;7.97;7.47;;;;;;;19.95;38.03;93282.28;5051585;28;20290;-76
2022/05/10 09:13:15;;;;;;;8.13;7.63;;;;;;;20.07;36.47;93292.97;5052910;28;20263;-77
2022/05/10 09:15:46;;;;;;;7.90;7.40;;;;;;;20.04;34.27;93276.91;5052096;28;20201;-77
2022/05/10 09:18:24;;;;;;;9.43;8.77;;;;;;;19.85;34.30;93279.97;5052489;28;20212;-76
2022/05/10 09:21:18;;;;;;;8.00;7.60;;;;;;;19.90;37.35;93281.66;5084588;28;20204;-77
2022/05/10 09:24:12;;;;;;;7.80;7.50;;;;;;;20.16;34.10;93282.34;5052707;28;20208;-77
2022/05/10 09:26:39;;;;;;;8.90;8.20;;;;;;;19.82;34.00;93280.63;5051576;28;20248;-77
2022/05/10 09:29:31;;;;;;;7.83;7.27;;;;;;;19.63;36.10;93264.31;5052806;28;20227;-76
2022/05/10 09:34:53;;;;;;;9.23;8.37;;;;;;;20.43;34.05;93269.41;5052088;28;20284;-77
2022/05/10 09:37:26;;;;;;;8.40;7.70;;;;;;;20.24;35.15;93279.66;5052356;28;20271;-77
2022/05/10 09:39:57;;;;;;;8.37;7.87;;;;;;;20.25;33.90;93273.25;5052549;28;20313;-77
2022/05/10 09:42:31;;;;;;;7.97;7.60;;;;;;;20.12;33.35;93249.59;5052894;28;20238;-77
2022/05/10 09:44:59;;;;;;;7.93;7.53;;;;;;;20.29;34.47;93268.88;5052113;28;20193;-77
2022/05/10 09:47:25;;;;;;;8.00;7.67;;;;;;;20.54;34.67;93265.25;5051115;28;20221;-77
2022/05/10 09:49:50;;;;;;;8.83;8.33;;;;;;;20.49;34.57;93259.34;5053958;28;20199;-77
2022/05/10 09:52:27;;;;;;;8.63;8.23;;;;;;;20.35;34.53;93262.28;5052664;28;20225;-77
2022/05/10 09:54:56;;;;;;;9.00;8.50;;;;;;;20.22;34.16;93268.59;5052214;28;20184;-76
2022/05/10 09:57:30;;;;;;;8.13;7.63;;;;;;;20.12;34.23;93254.91;5052549;28;20311;-77
2022/05/10 09:59:56;;;;;;;7.93;7.53;;;;;;;20.57;33.77;93259.31;5054227;28;20277;-77
2022/05/10 10:02:56;;;;;;;8.40;8.00;;;;;;;20.72;32.74;93265.88;5052003;28;20223;-77
2022/05/10 10:05:25;;;;;;;8.77;8.27;;;;;;;20.69;34.03;93259.38;5051353;28;20192;-77
2022/05/10 10:07:57;;;;;;;9.40;8.80;;;;;;;20.47;33.87;93251.72;5051488;28;20762;-77
2022/05/10 10:10:28;;;;;;;8.03;7.63;;;;;;;20.89;32.88;93254.38;5051541;28;20185;-77
2022/05/10 10:12:54;;;;;;;7.57;7.18;;;;;;;20.91;33.77;93236.22;5051656;28;20305;-76
2022/05/10 10:15:34;;;;;;;9.47;8.87;;;;;;;20.86;32.32;93244.41;5052030;28;20192;-77
2022/05/10 10:18:06;;;;;;;8.37;7.97;;;;;;;20.79;32.49;93244.13;5050277;28;20292;-77
2022/05/10 10:20:48;;;;;;;8.00;7.43;;;;;;;20.83;32.30;93242.38;5051257;28;20200;-78
2022/05/10 10:23:31;;;;;;;9.20;8.67;;;;;;;20.95;32.19;93237.88;5051088;28;20272;-78
2022/05/10 10:26:05;;;;;;;8.70;8.13;;;;;;;20.78;33.19;93231.97;5050403;28;22504;-77
2022/05/10 10:28:53;;;;;;;8.23;7.73;;;;;;;20.80;32.63;93235.06;5051812;28;20193;-77
2022/05/10 10:31:26;;;;;;;9.33;8.87;;;;;;;20.94;31.61;93235.56;5050403;28;20233;-77
2022/05/10 10:34:07;;;;;;;9.63;8.93;;;;;;;20.10;33.09;93207.50;5051857;28;20264;-77
2022/05/10 10:36:51;;;;;;;9.13;8.60;;;;;;;20.96;32.00;93222.78;5050732;28;20297;-78
2022/05/10 10:39:29;;;;;;;7.60;7.22;;;;;;;21.23;32.33;93224.84;5052084;28;20196;-77
2022/05/10 10:42:22;;;;;;;7.97;7.63;;;;;;;21.10;33.93;93224.03;5051001;28;20289;-77
2022/05/10 10:44:55;;;;;;;8.33;7.93;;;;;;;20.57;33.51;93192.97;5051915;28;20195;-77
2022/05/10 10:47:42;;;;;;;8.40;7.90;;;;;;;21.40;33.15;93219.34;5049568;28;20225;-77
2022/05/10 10:50:29;;;;;;;8.27;7.78;;;;;;;21.26;31.13;93216.22;5050369;28;20201;-77
2022/05/10 10:52:57;;;;;;;9.40;8.83;;;;;;;21.02;31.51;93211.63;5049059;28;20220;-77
2022/05/10 10:55:35;;;;;;;8.23;7.80;;;;;;;21.16;31.15;93208.66;5050348;28;20187;-77
2022/05/10 10:58:26;;;;;;;9.10;8.53;;;;;;;21.03;30.59;93207.09;5047321;28;20239;-77
2022/05/10 11:01:12;;;;;;;8.07;7.57;;;;;;;21.05;30.37;93204.88;5050136;28;20185;-77
2022/05/10 11:03:40;;;;;;;8.20;7.80;;;;;;;21.17;30.45;93204.94;5051225;28;20200;-77
2022/05/10 11:06:24;;;;;;;9.03;8.27;;;;;;;20.96;30.89;93185.59;5049528;28;20809;-77
2022/05/10 11:09:14;;;;;;;7.60;7.30;;;;;;;20.95;31.41;93190.09;5051192;28;20233;-77
2022/05/10 11:11:49;;;;;;;7.87;7.50;;;;;;;20.85;30.80;93181.78;5050848;28;20229;-78
2022/05/10 11:14:30;;;;;;;8.93;8.32;;;;;;;20.77;32.32;93185.28;5050028;28;20195;-77
2022/05/10 11:17:17;;;;;;;8.03;7.63;;;;;;;21.01;30.51;93185.41;5048855;28;20293;-77
2022/05/10 11:20:07;;;;;;;7.30;6.90;;;;;;;21.26;30.60;93185.13;5050380;28;20962;-77
2022/05/10 11:23:06;;;;;;;9.23;7.75;;;;;;;21.62;30.07;93187.06;5050476;28;20260;-78
2022/05/10 11:26:05;;;;;;;8.10;7.70;;;;;;;21.54;29.12;93177.31;5050046;28;20231;-78
2022/05/10 11:28:52;;;;;;;8.48;8.07;;;;;;;20.96;29.09;93177.63;5049674;28;20229;-77
2022/05/10 11:31:46;;;;;;;8.27;7.70;;;;;;;21.25;27.79;93172.16;5049087;28;20234;-78
2022/05/10 11:34:26;;;;;;;8.68;8.18;;;;;;;21.10;28.44;93154.22;5050207;28;20201;-78
2022/05/10 11:36:52;;;;;;;7.90;7.60;;;;;;;21.07;27.07;93149.56;5049800;28;20262;-77
2022/05/10 11:39:33;;;;;;;8.13;7.75;;;;;;;21.54;26.86;93164.78;5049379;28;20188;-77
2022/05/10 11:42:17;;;;;;;8.45;7.95;;;;;;;21.02;27.58;93161.19;5049415;28;20300;-77
2022/05/10 11:45:01;;;;;;;7.88;7.47;;;;;;;20.97;27.75;93157.94;5048698;28;20264;-77
2022/05/10 11:47:52;;;;;;;8.23;7.72;;;;;;;21.17;26.88;93143.84;5049916;28;20253;-77
2022/05/10 11:50:18;;;;;;;7.95;7.55;;;;;;;21.46;27.30;93140.97;5051752;28;20210;-77
2022/05/10 11:53:22;;;;;;;7.40;7.03;;;;;;;21.53;28.21;93130.56;5049566;28;20232;-78
2022/05/10 11:55:59;;;;;;;8.23;7.82;;;;;;;21.62;28.33;93139.22;5048130;28;20243;-77
2022/05/10 11:58:27;;;;;;;7.88;7.47;;;;;;;21.66;27.56;93124.13;5049787;28;20208;-78
2022/05/10 12:00:56;;;;;;;8.07;7.68;;;;;;;21.33;27.21;93134.09;5048883;28;20189;-78
2022/05/10 12:03:36;;;;;;;8.75;8.10;;;;;;;21.30;27.90;93126.78;5049577;28;20191;-78
2022/05/10 12:06:22;;;;;;;7.45;7.15;;;;;;;21.54;28.95;93118.84;5049652;28;20232;-77